sensor_id;sensor_type;location;lat;lon;timestamp;P1;durP1;ratioP1;P2;durP2;ratioP2
33926;SDS011;20485;50.992;5.550;2023-06-22T00:00:57;5.00;;;2.92;;
33926;SDS011;20485;50.992;5.550;2023-06-22T00:03:24;8.55;;;2.63;;
33926;SDS011;20485;50.992;5.550;2023-06-22T00:05:50;4.78;;;3.03;;
33926;SDS011;20485;50.992;5.550;2023-06-22T00:08:17;12.65;;;2.80;;
33926;SDS011;20485;50.992;5.550;2023-06-22T00:10:44;8.05;;;3.15;;
33926;SDS011;20485;50.992;5.550;2023-06-22T00:13:10;4.65;;;2.90;;
33926;SDS011;20485;50.992;5.550;2023-06-22T00:15:37;3.88;;;2.75;;
33926;SDS011;20485;50.992;5.550;2023-06-22T00:18:07;3.42;;;2.35;;
33926;SDS011;20485;50.992;5.550;2023-06-22T00:20:34;5.20;;;2.72;;
33926;SDS011;20485;50.992;5.550;2023-06-22T00:23:02;5.15;;;2.60;;
33926;SDS011;20485;50.992;5.550;2023-06-22T00:25:33;5.68;;;2.67;;
33926;SDS011;20485;50.992;5.550;2023-06-22T00:28:03;4.22;;;3.10;;
33926;SDS011;20485;50.992;5.550;2023-06-22T00:30:30;3.15;;;2.45;;
33926;SDS011;20485;50.992;5.550;2023-06-22T00:32:57;8.45;;;2.65;;
33926;SDS011;20485;50.992;5.550;2023-06-22T00:35:23;3.50;;;2.80;;
33926;SDS011;20485;50.992;5.550;2023-06-22T00:37:57;3.78;;;2.33;;
33926;SDS011;20485;50.992;5.550;2023-06-22T00:40:28;5.63;;;2.55;;
33926;SDS011;20485;50.992;5.550;2023-06-22T00:42:57;8.95;;;2.80;;
33926;SDS011;20485;50.992;5.550;2023-06-22T00:45:24;6.47;;;2.58;;
33926;SDS011;20485;50.992;5.550;2023-06-22T00:47:50;8.45;;;3.13;;
33926;SDS011;20485;50.992;5.550;2023-06-22T00:50:18;6.68;;;2.80;;
33926;SDS011;20485;50.992;5.550;2023-06-22T00:52:51;5.72;;;3.15;;
33926;SDS011;20485;50.992;5.550;2023-06-22T00:55:22;5.10;;;3.30;;
33926;SDS011;20485;50.992;5.550;2023-06-22T00:57:48;5.63;;;3.67;;
33926;SDS011;20485;50.992;5.550;2023-06-22T01:00:15;4.78;;;3.35;;
33926;SDS011;20485;50.992;5.550;2023-06-22T01:02:45;9.27;;;3.83;;
33926;SDS011;20485;50.992;5.550;2023-06-22T01:05:12;8.13;;;3.53;;
33926;SDS011;20485;50.992;5.550;2023-06-22T01:07:40;7.25;;;4.25;;
33926;SDS011;20485;50.992;5.550;2023-06-22T01:10:35;5.72;;;3.92;;
33926;SDS011;20485;50.992;5.550;2023-06-22T01:13:07;6.32;;;3.53;;
33926;SDS011;20485;50.992;5.550;2023-06-22T01:15:43;6.00;;;3.45;;
33926;SDS011;20485;50.992;5.550;2023-06-22T01:18:14;11.75;;;4.32;;
33926;SDS011;20485;50.992;5.550;2023-06-22T01:20:42;13.80;;;4.20;;
33926;SDS011;20485;50.992;5.550;2023-06-22T01:26:08;11.10;;;4.32;;
33926;SDS011;20485;50.992;5.550;2023-06-22T01:28:57;5.28;;;3.72;;
33926;SDS011;20485;50.992;5.550;2023-06-22T01:31:25;5.97;;;3.50;;
33926;SDS011;20485;50.992;5.550;2023-06-22T01:33:55;7.35;;;3.90;;
33926;SDS011;20485;50.992;5.550;2023-06-22T01:36:24;7.47;;;3.75;;
33926;SDS011;20485;50.992;5.550;2023-06-22T01:38:50;6.57;;;4.57;;
33926;SDS011;20485;50.992;5.550;2023-06-22T01:41:18;8.48;;;5.03;;
33926;SDS011;20485;50.992;5.550;2023-06-22T01:43:45;7.75;;;4.80;;
33926;SDS011;20485;50.992;5.550;2023-06-22T01:46:12;7.35;;;5.00;;
33926;SDS011;20485;50.992;5.550;2023-06-22T01:48:38;9.82;;;5.20;;
33926;SDS011;20485;50.992;5.550;2023-06-22T01:51:05;7.60;;;5.25;;
33926;SDS011;20485;50.992;5.550;2023-06-22T01:53:30;8.35;;;4.85;;
33926;SDS011;20485;50.992;5.550;2023-06-22T01:55:56;7.30;;;4.40;;
33926;SDS011;20485;50.992;5.550;2023-06-22T01:58:23;6.50;;;4.60;;
33926;SDS011;20485;50.992;5.550;2023-06-22T02:01:05;12.35;;;5.78;;
33926;SDS011;20485;50.992;5.550;2023-06-22T02:03:37;13.43;;;6.93;;
33926;SDS011;20485;50.992;5.550;2023-06-22T02:06:11;12.73;;;6.80;;
33926;SDS011;20485;50.992;5.550;2023-06-22T02:08:49;11.65;;;7.28;;
33926;SDS011;20485;50.992;5.550;2023-06-22T02:11:22;12.85;;;7.28;;
33926;SDS011;20485;50.992;5.550;2023-06-22T02:13:50;9.45;;;7.15;;
33926;SDS011;20485;50.992;5.550;2023-06-22T02:16:16;11.75;;;7.00;;
33926;SDS011;20485;50.992;5.550;2023-06-22T02:18:50;11.70;;;7.90;;
33926;SDS011;20485;50.992;5.550;2023-06-22T02:21:19;13.27;;;8.52;;
33926;SDS011;20485;50.992;5.550;2023-06-22T02:23:45;13.57;;;7.93;;
33926;SDS011;20485;50.992;5.550;2023-06-22T02:26:11;14.93;;;8.57;;
33926;SDS011;20485;50.992;5.550;2023-06-22T02:28:37;12.50;;;9.13;;
33926;SDS011;20485;50.992;5.550;2023-06-22T02:31:03;13.73;;;9.00;;
33926;SDS011;20485;50.992;5.550;2023-06-22T02:33:28;13.77;;;9.48;;
33926;SDS011;20485;50.992;5.550;2023-06-22T02:35:54;14.25;;;8.75;;
33926;SDS011;20485;50.992;5.550;2023-06-22T02:38:20;20.23;;;10.68;;
33926;SDS011;20485;50.992;5.550;2023-06-22T02:40:46;16.50;;;10.52;;
33926;SDS011;20485;50.992;5.550;2023-06-22T02:43:11;17.17;;;11.43;;
33926;SDS011;20485;50.992;5.550;2023-06-22T02:45:37;17.10;;;10.63;;
33926;SDS011;20485;50.992;5.550;2023-06-22T02:48:03;15.68;;;10.80;;
33926;SDS011;20485;50.992;5.550;2023-06-22T02:50:29;19.42;;;11.57;;
33926;SDS011;20485;50.992;5.550;2023-06-22T02:52:55;16.55;;;11.82;;
33926;SDS011;20485;50.992;5.550;2023-06-22T02:55:21;21.40;;;12.38;;
33926;SDS011;20485;50.992;5.550;2023-06-22T02:57:47;17.17;;;11.60;;
33926;SDS011;20485;50.992;5.550;2023-06-22T03:00:13;21.73;;;13.05;;
33926;SDS011;20485;50.992;5.550;2023-06-22T03:02:45;21.33;;;13.13;;
33926;SDS011;20485;50.992;5.550;2023-06-22T03:05:12;20.50;;;12.88;;
33926;SDS011;20485;50.992;5.550;2023-06-22T03:07:46;23.65;;;12.32;;
33926;SDS011;20485;50.992;5.550;2023-06-22T03:10:12;17.92;;;12.38;;
33926;SDS011;20485;50.992;5.550;2023-06-22T03:12:39;22.38;;;13.68;;
33926;SDS011;20485;50.992;5.550;2023-06-22T03:15:09;19.63;;;13.30;;
33926;SDS011;20485;50.992;5.550;2023-06-22T03:17:36;20.52;;;13.38;;
33926;SDS011;20485;50.992;5.550;2023-06-22T03:20:03;18.15;;;13.25;;
33926;SDS011;20485;50.992;5.550;2023-06-22T03:22:39;23.17;;;14.27;;
33926;SDS011;20485;50.992;5.550;2023-06-22T03:25:06;26.33;;;13.95;;
33926;SDS011;20485;50.992;5.550;2023-06-22T03:27:36;20.20;;;13.48;;
33926;SDS011;20485;50.992;5.550;2023-06-22T03:30:02;24.75;;;14.82;;
33926;SDS011;20485;50.992;5.550;2023-06-22T03:32:28;25.08;;;14.60;;
33926;SDS011;20485;50.992;5.550;2023-06-22T03:34:53;21.02;;;14.15;;
33926;SDS011;20485;50.992;5.550;2023-06-22T03:37:19;28.67;;;14.52;;
33926;SDS011;20485;50.992;5.550;2023-06-22T03:39:45;18.77;;;14.32;;
33926;SDS011;20485;50.992;5.550;2023-06-22T03:42:10;23.40;;;13.38;;
33926;SDS011;20485;50.992;5.550;2023-06-22T03:44:36;19.60;;;13.45;;
33926;SDS011;20485;50.992;5.550;2023-06-22T03:47:05;23.33;;;14.18;;
33926;SDS011;20485;50.992;5.550;2023-06-22T03:49:32;21.38;;;14.18;;
33926;SDS011;20485;50.992;5.550;2023-06-22T03:51:59;21.00;;;14.90;;
33926;SDS011;20485;50.992;5.550;2023-06-22T03:54:26;20.67;;;14.57;;
33926;SDS011;20485;50.992;5.550;2023-06-22T03:56:52;27.88;;;14.10;;
33926;SDS011;20485;50.992;5.550;2023-06-22T03:59:18;26.77;;;16.45;;
33926;SDS011;20485;50.992;5.550;2023-06-22T04:01:44;23.77;;;15.65;;
33926;SDS011;20485;50.992;5.550;2023-06-22T04:04:09;24.00;;;15.30;;
33926;SDS011;20485;50.992;5.550;2023-06-22T04:06:35;21.55;;;14.52;;
33926;SDS011;20485;50.992;5.550;2023-06-22T04:09:01;23.33;;;16.00;;
33926;SDS011;20485;50.992;5.550;2023-06-22T04:11:27;19.85;;;14.35;;
33926;SDS011;20485;50.992;5.550;2023-06-22T04:13:53;26.05;;;16.23;;
33926;SDS011;20485;50.992;5.550;2023-06-22T04:16:18;27.95;;;15.70;;
33926;SDS011;20485;50.992;5.550;2023-06-22T04:18:44;23.48;;;16.02;;
33926;SDS011;20485;50.992;5.550;2023-06-22T04:21:10;22.40;;;15.88;;
33926;SDS011;20485;50.992;5.550;2023-06-22T04:23:36;21.77;;;15.88;;
33926;SDS011;20485;50.992;5.550;2023-06-22T04:26:01;25.90;;;14.82;;
33926;SDS011;20485;50.992;5.550;2023-06-22T04:28:27;22.20;;;15.52;;
33926;SDS011;20485;50.992;5.550;2023-06-22T04:30:53;11.65;;;7.65;;
33926;SDS011;20485;50.992;5.550;2023-06-22T04:33:23;19.10;;;10.13;;
33926;SDS011;20485;50.992;5.550;2023-06-22T04:35:49;15.95;;;12.27;;
33926;SDS011;20485;50.992;5.550;2023-06-22T04:38:15;24.38;;;13.45;;
33926;SDS011;20485;50.992;5.550;2023-06-22T04:40:41;24.48;;;14.95;;
33926;SDS011;20485;50.992;5.550;2023-06-22T04:43:07;27.30;;;15.13;;
33926;SDS011;20485;50.992;5.550;2023-06-22T04:45:35;17.50;;;10.30;;
33926;SDS011;20485;50.992;5.550;2023-06-22T04:48:03;14.82;;;8.07;;
33926;SDS011;20485;50.992;5.550;2023-06-22T04:50:29;15.80;;;8.20;;
33926;SDS011;20485;50.992;5.550;2023-06-22T04:52:55;14.57;;;8.18;;
33926;SDS011;20485;50.992;5.550;2023-06-22T04:55:21;16.98;;;11.13;;
33926;SDS011;20485;50.992;5.550;2023-06-22T04:57:47;24.63;;;12.20;;
33926;SDS011;20485;50.992;5.550;2023-06-22T05:00:22;17.52;;;10.43;;
33926;SDS011;20485;50.992;5.550;2023-06-22T05:02:48;16.10;;;9.43;;
33926;SDS011;20485;50.992;5.550;2023-06-22T05:05:15;13.50;;;9.02;;
33926;SDS011;20485;50.992;5.550;2023-06-22T05:07:44;20.95;;;11.10;;
33926;SDS011;20485;50.992;5.550;2023-06-22T05:10:13;25.45;;;13.70;;
33926;SDS011;20485;50.992;5.550;2023-06-22T05:12:39;18.65;;;12.57;;
33926;SDS011;20485;50.992;5.550;2023-06-22T05:15:09;19.70;;;12.75;;
33926;SDS011;20485;50.992;5.550;2023-06-22T05:17:35;20.90;;;12.98;;
33926;SDS011;20485;50.992;5.550;2023-06-22T05:20:02;31.25;;;14.85;;
33926;SDS011;20485;50.992;5.550;2023-06-22T05:22:31;28.00;;;16.23;;
33926;SDS011;20485;50.992;5.550;2023-06-22T05:24:57;29.25;;;17.65;;
33926;SDS011;20485;50.992;5.550;2023-06-22T05:27:22;26.60;;;17.50;;
33926;SDS011;20485;50.992;5.550;2023-06-22T05:29:48;23.02;;;15.57;;
33926;SDS011;20485;50.992;5.550;2023-06-22T05:32:14;31.95;;;17.85;;
33926;SDS011;20485;50.992;5.550;2023-06-22T05:34:39;23.67;;;14.65;;
33926;SDS011;20485;50.992;5.550;2023-06-22T05:37:05;24.05;;;16.73;;
33926;SDS011;20485;50.992;5.550;2023-06-22T05:39:31;25.63;;;15.43;;
33926;SDS011;20485;50.992;5.550;2023-06-22T05:41:57;21.02;;;15.90;;
33926;SDS011;20485;50.992;5.550;2023-06-22T05:44:22;22.70;;;16.80;;
33926;SDS011;20485;50.992;5.550;2023-06-22T05:46:48;28.65;;;17.42;;
33926;SDS011;20485;50.992;5.550;2023-06-22T05:49:14;29.33;;;17.63;;
33926;SDS011;20485;50.992;5.550;2023-06-22T05:51:40;30.63;;;20.17;;
33926;SDS011;20485;50.992;5.550;2023-06-22T05:54:06;27.60;;;18.67;;
33926;SDS011;20485;50.992;5.550;2023-06-22T05:56:35;28.35;;;18.20;;
33926;SDS011;20485;50.992;5.550;2023-06-22T05:59:01;26.15;;;16.67;;
33926;SDS011;20485;50.992;5.550;2023-06-22T06:01:26;26.77;;;16.95;;
33926;SDS011;20485;50.992;5.550;2023-06-22T06:03:52;28.30;;;18.60;;
33926;SDS011;20485;50.992;5.550;2023-06-22T06:06:18;28.17;;;17.92;;
33926;SDS011;20485;50.992;5.550;2023-06-22T06:08:53;26.23;;;17.77;;
33926;SDS011;20485;50.992;5.550;2023-06-22T06:11:20;27.10;;;18.80;;
33926;SDS011;20485;50.992;5.550;2023-06-22T06:13:45;26.27;;;18.55;;
33926;SDS011;20485;50.992;5.550;2023-06-22T06:16:11;36.17;;;20.85;;
33926;SDS011;20485;50.992;5.550;2023-06-22T06:18:36;28.50;;;20.13;;
33926;SDS011;20485;50.992;5.550;2023-06-22T06:21:02;31.80;;;22.58;;
33926;SDS011;20485;50.992;5.550;2023-06-22T06:23:28;36.35;;;21.45;;
33926;SDS011;20485;50.992;5.550;2023-06-22T06:25:54;32.80;;;22.02;;
33926;SDS011;20485;50.992;5.550;2023-06-22T06:28:19;42.63;;;22.80;;
33926;SDS011;20485;50.992;5.550;2023-06-22T06:30:45;31.30;;;21.48;;
33926;SDS011;20485;50.992;5.550;2023-06-22T06:33:12;33.58;;;22.30;;
33926;SDS011;20485;50.992;5.550;2023-06-22T06:35:38;33.75;;;22.63;;
33926;SDS011;20485;50.992;5.550;2023-06-22T06:38:03;33.70;;;21.90;;
33926;SDS011;20485;50.992;5.550;2023-06-22T06:40:29;31.00;;;22.10;;
33926;SDS011;20485;50.992;5.550;2023-06-22T06:42:55;32.15;;;21.73;;
33926;SDS011;20485;50.992;5.550;2023-06-22T06:45:22;42.17;;;23.15;;
33926;SDS011;20485;50.992;5.550;2023-06-22T06:47:49;31.27;;;23.40;;
33926;SDS011;20485;50.992;5.550;2023-06-22T06:50:15;35.47;;;23.35;;
33926;SDS011;20485;50.992;5.550;2023-06-22T06:52:41;37.88;;;24.85;;
33926;SDS011;20485;50.992;5.550;2023-06-22T06:55:07;37.58;;;23.70;;
33926;SDS011;20485;50.992;5.550;2023-06-22T06:57:37;36.90;;;24.92;;
33926;SDS011;20485;50.992;5.550;2023-06-22T07:00:04;40.92;;;25.13;;
33926;SDS011;20485;50.992;5.550;2023-06-22T07:02:40;42.90;;;26.27;;
33926;SDS011;20485;50.992;5.550;2023-06-22T07:05:29;36.85;;;24.60;;
33926;SDS011;20485;50.992;5.550;2023-06-22T07:08:02;38.70;;;26.95;;
33926;SDS011;20485;50.992;5.550;2023-06-22T07:10:28;36.47;;;23.65;;
33926;SDS011;20485;50.992;5.550;2023-06-22T07:12:54;43.78;;;24.80;;
33926;SDS011;20485;50.992;5.550;2023-06-22T07:15:20;39.38;;;25.33;;
33926;SDS011;20485;50.992;5.550;2023-06-22T07:17:45;35.00;;;24.88;;
33926;SDS011;20485;50.992;5.550;2023-06-22T07:20:11;33.67;;;22.88;;
33926;SDS011;20485;50.992;5.550;2023-06-22T07:22:37;31.95;;;22.55;;
33926;SDS011;20485;50.992;5.550;2023-06-22T07:25:07;32.75;;;21.05;;
33926;SDS011;20485;50.992;5.550;2023-06-22T07:27:39;31.92;;;22.13;;
33926;SDS011;20485;50.992;5.550;2023-06-22T07:30:10;28.73;;;22.00;;
33926;SDS011;20485;50.992;5.550;2023-06-22T07:32:37;28.17;;;21.40;;
33926;SDS011;20485;50.992;5.550;2023-06-22T07:35:03;28.80;;;21.05;;
33926;SDS011;20485;50.992;5.550;2023-06-22T07:37:29;25.90;;;19.92;;
33926;SDS011;20485;50.992;5.550;2023-06-22T07:39:55;32.38;;;22.20;;
33926;SDS011;20485;50.992;5.550;2023-06-22T07:42:25;36.08;;;21.42;;
33926;SDS011;20485;50.992;5.550;2023-06-22T07:44:51;26.60;;;20.13;;
33926;SDS011;20485;50.992;5.550;2023-06-22T07:47:17;29.95;;;21.67;;
33926;SDS011;20485;50.992;5.550;2023-06-22T07:49:44;33.45;;;22.02;;
33926;SDS011;20485;50.992;5.550;2023-06-22T07:52:10;27.15;;;20.80;;
33926;SDS011;20485;50.992;5.550;2023-06-22T07:54:36;32.08;;;22.02;;
33926;SDS011;20485;50.992;5.550;2023-06-22T07:57:02;31.98;;;21.35;;
33926;SDS011;20485;50.992;5.550;2023-06-22T07:59:28;30.15;;;21.63;;
33926;SDS011;20485;50.992;5.550;2023-06-22T08:01:54;27.70;;;21.40;;
33926;SDS011;20485;50.992;5.550;2023-06-22T08:04:20;35.38;;;23.35;;
33926;SDS011;20485;50.992;5.550;2023-06-22T08:06:46;30.15;;;21.17;;
33926;SDS011;20485;50.992;5.550;2023-06-22T08:09:11;28.95;;;22.02;;
33926;SDS011;20485;50.992;5.550;2023-06-22T08:11:37;29.35;;;21.90;;
33926;SDS011;20485;50.992;5.550;2023-06-22T08:14:03;31.70;;;22.30;;
33926;SDS011;20485;50.992;5.550;2023-06-22T08:16:28;38.20;;;22.00;;
33926;SDS011;20485;50.992;5.550;2023-06-22T08:18:54;32.60;;;22.88;;
33926;SDS011;20485;50.992;5.550;2023-06-22T08:21:20;29.08;;;20.92;;
33926;SDS011;20485;50.992;5.550;2023-06-22T08:23:46;30.08;;;20.70;;
33926;SDS011;20485;50.992;5.550;2023-06-22T08:26:11;33.28;;;21.08;;
33926;SDS011;20485;50.992;5.550;2023-06-22T08:28:37;31.05;;;20.77;;
33926;SDS011;20485;50.992;5.550;2023-06-22T08:31:03;26.58;;;19.88;;
33926;SDS011;20485;50.992;5.550;2023-06-22T08:33:29;30.73;;;20.30;;
33926;SDS011;20485;50.992;5.550;2023-06-22T08:35:55;31.55;;;20.60;;
33926;SDS011;20485;50.992;5.550;2023-06-22T08:38:21;30.77;;;20.90;;
33926;SDS011;20485;50.992;5.550;2023-06-22T08:40:47;27.75;;;20.10;;
33926;SDS011;20485;50.992;5.550;2023-06-22T08:43:13;29.23;;;20.02;;
33926;SDS011;20485;50.992;5.550;2023-06-22T08:45:39;30.88;;;20.48;;
33926;SDS011;20485;50.992;5.550;2023-06-22T08:48:05;27.73;;;20.70;;
33926;SDS011;20485;50.992;5.550;2023-06-22T08:50:30;28.00;;;20.13;;
33926;SDS011;20485;50.992;5.550;2023-06-22T08:52:56;34.28;;;20.83;;
33926;SDS011;20485;50.992;5.550;2023-06-22T08:55:22;25.83;;;19.95;;
33926;SDS011;20485;50.992;5.550;2023-06-22T08:57:47;27.83;;;20.88;;
33926;SDS011;20485;50.992;5.550;2023-06-22T09:00:13;29.75;;;19.90;;
33926;SDS011;20485;50.992;5.550;2023-06-22T09:02:43;33.05;;;20.63;;
33926;SDS011;20485;50.992;5.550;2023-06-22T09:05:09;29.98;;;20.73;;
33926;SDS011;20485;50.992;5.550;2023-06-22T09:07:35;32.22;;;21.50;;
33926;SDS011;20485;50.992;5.550;2023-06-22T09:10:01;32.22;;;21.00;;
33926;SDS011;20485;50.992;5.550;2023-06-22T09:12:29;30.80;;;21.55;;
33926;SDS011;20485;50.992;5.550;2023-06-22T09:14:55;30.52;;;20.73;;
33926;SDS011;20485;50.992;5.550;2023-06-22T09:17:22;28.95;;;20.77;;
33926;SDS011;20485;50.992;5.550;2023-06-22T09:19:48;28.90;;;21.15;;
33926;SDS011;20485;50.992;5.550;2023-06-22T09:22:13;30.10;;;21.95;;
33926;SDS011;20485;50.992;5.550;2023-06-22T09:24:39;27.25;;;21.13;;
33926;SDS011;20485;50.992;5.550;2023-06-22T09:27:05;29.85;;;21.05;;
33926;SDS011;20485;50.992;5.550;2023-06-22T09:29:31;28.98;;;20.17;;
33926;SDS011;20485;50.992;5.550;2023-06-22T09:31:59;33.50;;;20.25;;
33926;SDS011;20485;50.992;5.550;2023-06-22T09:34:25;30.42;;;20.23;;
33926;SDS011;20485;50.992;5.550;2023-06-22T09:36:51;28.15;;;20.77;;
33926;SDS011;20485;50.992;5.550;2023-06-22T09:39:20;27.35;;;20.75;;
33926;SDS011;20485;50.992;5.550;2023-06-22T09:41:45;29.15;;;19.88;;
33926;SDS011;20485;50.992;5.550;2023-06-22T09:44:11;30.00;;;21.25;;
33926;SDS011;20485;50.992;5.550;2023-06-22T09:46:37;29.25;;;19.98;;
33926;SDS011;20485;50.992;5.550;2023-06-22T09:49:02;27.42;;;18.20;;
33926;SDS011;20485;50.992;5.550;2023-06-22T09:51:28;29.30;;;20.95;;
33926;SDS011;20485;50.992;5.550;2023-06-22T09:53:54;28.70;;;20.65;;
33926;SDS011;20485;50.992;5.550;2023-06-22T09:56:20;30.58;;;19.95;;
33926;SDS011;20485;50.992;5.550;2023-06-22T09:58:46;30.52;;;20.52;;
33926;SDS011;20485;50.992;5.550;2023-06-22T10:01:12;29.27;;;19.70;;
33926;SDS011;20485;50.992;5.550;2023-06-22T10:03:41;26.98;;;20.75;;
33926;SDS011;20485;50.992;5.550;2023-06-22T10:06:07;30.42;;;21.98;;
33926;SDS011;20485;50.992;5.550;2023-06-22T10:08:34;26.70;;;19.33;;
33926;SDS011;20485;50.992;5.550;2023-06-22T10:11:00;30.45;;;19.63;;
33926;SDS011;20485;50.992;5.550;2023-06-22T10:13:25;26.20;;;17.65;;
33926;SDS011;20485;50.992;5.550;2023-06-22T10:15:51;26.80;;;19.42;;
33926;SDS011;20485;50.992;5.550;2023-06-22T10:18:18;29.42;;;20.40;;
33926;SDS011;20485;50.992;5.550;2023-06-22T10:20:44;27.45;;;21.60;;
33926;SDS011;20485;50.992;5.550;2023-06-22T10:23:12;29.88;;;21.13;;
33926;SDS011;20485;50.992;5.550;2023-06-22T10:25:38;29.40;;;21.05;;
33926;SDS011;20485;50.992;5.550;2023-06-22T10:28:03;35.03;;;22.75;;
33926;SDS011;20485;50.992;5.550;2023-06-22T10:30:29;34.63;;;22.40;;
33926;SDS011;20485;50.992;5.550;2023-06-22T10:32:55;27.17;;;20.33;;
33926;SDS011;20485;50.992;5.550;2023-06-22T10:35:20;38.40;;;23.70;;
33926;SDS011;20485;50.992;5.550;2023-06-22T10:37:46;31.73;;;23.10;;
33926;SDS011;20485;50.992;5.550;2023-06-22T10:40:12;42.42;;;27.02;;
33926;SDS011;20485;50.992;5.550;2023-06-22T10:42:39;45.20;;;26.95;;
33926;SDS011;20485;50.992;5.550;2023-06-22T10:45:06;42.83;;;27.75;;
33926;SDS011;20485;50.992;5.550;2023-06-22T10:47:32;41.58;;;28.50;;
33926;SDS011;20485;50.992;5.550;2023-06-22T10:49:57;49.92;;;29.80;;
33926;SDS011;20485;50.992;5.550;2023-06-22T10:52:23;43.83;;;31.02;;
33926;SDS011;20485;50.992;5.550;2023-06-22T10:54:49;48.03;;;31.95;;
33926;SDS011;20485;50.992;5.550;2023-06-22T10:57:14;45.70;;;31.80;;
33926;SDS011;20485;50.992;5.550;2023-06-22T10:59:40;55.40;;;33.60;;
33926;SDS011;20485;50.992;5.550;2023-06-22T11:02:06;53.40;;;31.88;;
33926;SDS011;20485;50.992;5.550;2023-06-22T11:04:31;40.28;;;29.30;;
33926;SDS011;20485;50.992;5.550;2023-06-22T11:06:57;43.88;;;32.47;;
33926;SDS011;20485;50.992;5.550;2023-06-22T11:09:23;46.15;;;33.90;;
33926;SDS011;20485;50.992;5.550;2023-06-22T11:11:49;50.88;;;32.63;;
33926;SDS011;20485;50.992;5.550;2023-06-22T11:14:18;53.35;;;36.28;;
33926;SDS011;20485;50.992;5.550;2023-06-22T11:16:44;54.70;;;37.25;;
33926;SDS011;20485;50.992;5.550;2023-06-22T11:19:11;43.42;;;32.47;;
33926;SDS011;20485;50.992;5.550;2023-06-22T11:21:37;46.03;;;32.95;;
33926;SDS011;20485;50.992;5.550;2023-06-22T11:24:03;46.35;;;33.97;;
33926;SDS011;20485;50.992;5.550;2023-06-22T11:26:29;54.10;;;38.92;;
33926;SDS011;20485;50.992;5.550;2023-06-22T11:28:56;56.38;;;37.30;;
33926;SDS011;20485;50.992;5.550;2023-06-22T11:31:21;52.20;;;37.13;;
33926;SDS011;20485;50.992;5.550;2023-06-22T11:33:47;50.83;;;35.85;;
33926;SDS011;20485;50.992;5.550;2023-06-22T11:36:13;49.25;;;35.30;;
33926;SDS011;20485;50.992;5.550;2023-06-22T11:38:39;48.08;;;36.45;;
33926;SDS011;20485;50.992;5.550;2023-06-22T11:41:08;48.72;;;37.60;;
33926;SDS011;20485;50.992;5.550;2023-06-22T11:43:35;44.17;;;35.08;;
33926;SDS011;20485;50.992;5.550;2023-06-22T11:46:05;54.47;;;39.17;;
33926;SDS011;20485;50.992;5.550;2023-06-22T11:48:31;49.13;;;34.70;;
33926;SDS011;20485;50.992;5.550;2023-06-22T11:50:57;50.45;;;37.03;;
33926;SDS011;20485;50.992;5.550;2023-06-22T11:53:25;51.35;;;37.00;;
33926;SDS011;20485;50.992;5.550;2023-06-22T11:55:51;51.65;;;36.20;;
33926;SDS011;20485;50.992;5.550;2023-06-22T11:58:20;51.20;;;35.08;;
33926;SDS011;20485;50.992;5.550;2023-06-22T12:00:47;44.63;;;34.67;;
33926;SDS011;20485;50.992;5.550;2023-06-22T12:03:13;44.63;;;32.33;;
33926;SDS011;20485;50.992;5.550;2023-06-22T12:05:39;46.40;;;33.95;;
33926;SDS011;20485;50.992;5.550;2023-06-22T12:08:06;45.97;;;33.28;;
33926;SDS011;20485;50.992;5.550;2023-06-22T12:10:31;42.85;;;33.35;;
33926;SDS011;20485;50.992;5.550;2023-06-22T12:12:57;48.00;;;37.17;;
33926;SDS011;20485;50.992;5.550;2023-06-22T12:15:24;55.47;;;37.70;;
33926;SDS011;20485;50.992;5.550;2023-06-22T12:17:50;51.50;;;37.35;;
33926;SDS011;20485;50.992;5.550;2023-06-22T12:20:16;48.60;;;37.00;;
33926;SDS011;20485;50.992;5.550;2023-06-22T12:22:42;51.50;;;38.55;;
33926;SDS011;20485;50.992;5.550;2023-06-22T12:25:08;52.33;;;37.67;;
33926;SDS011;20485;50.992;5.550;2023-06-22T12:27:34;53.40;;;40.25;;
33926;SDS011;20485;50.992;5.550;2023-06-22T12:30:01;55.97;;;39.95;;
33926;SDS011;20485;50.992;5.550;2023-06-22T12:32:27;51.50;;;37.47;;
33926;SDS011;20485;50.992;5.550;2023-06-22T12:34:53;52.63;;;39.40;;
33926;SDS011;20485;50.992;5.550;2023-06-22T12:37:19;57.90;;;38.10;;
33926;SDS011;20485;50.992;5.550;2023-06-22T12:39:45;54.97;;;37.45;;
33926;SDS011;20485;50.992;5.550;2023-06-22T12:42:10;58.40;;;39.20;;
33926;SDS011;20485;50.992;5.550;2023-06-22T12:44:39;53.80;;;39.67;;
33926;SDS011;20485;50.992;5.550;2023-06-22T12:47:06;57.33;;;41.17;;
33926;SDS011;20485;50.992;5.550;2023-06-22T12:49:32;53.85;;;39.10;;
33926;SDS011;20485;50.992;5.550;2023-06-22T12:51:57;57.78;;;41.88;;
33926;SDS011;20485;50.992;5.550;2023-06-22T12:54:23;57.00;;;41.20;;
33926;SDS011;20485;50.992;5.550;2023-06-22T12:56:50;61.58;;;40.75;;
33926;SDS011;20485;50.992;5.550;2023-06-22T12:59:15;54.47;;;40.00;;
33926;SDS011;20485;50.992;5.550;2023-06-22T13:01:42;56.65;;;40.78;;
33926;SDS011;20485;50.992;5.550;2023-06-22T13:04:09;55.17;;;40.90;;
33926;SDS011;20485;50.992;5.550;2023-06-22T13:06:36;55.00;;;39.50;;
33926;SDS011;20485;50.992;5.550;2023-06-22T13:09:02;56.05;;;40.70;;
33926;SDS011;20485;50.992;5.550;2023-06-22T13:11:30;54.70;;;38.00;;
33926;SDS011;20485;50.992;5.550;2023-06-22T13:13:55;55.28;;;38.22;;
33926;SDS011;20485;50.992;5.550;2023-06-22T13:16:21;51.00;;;36.35;;
33926;SDS011;20485;50.992;5.550;2023-06-22T13:18:47;48.20;;;35.92;;
33926;SDS011;20485;50.992;5.550;2023-06-22T13:21:12;43.13;;;31.33;;
33926;SDS011;20485;50.992;5.550;2023-06-22T13:23:39;40.15;;;30.98;;
33926;SDS011;20485;50.992;5.550;2023-06-22T13:26:05;38.75;;;27.83;;
33926;SDS011;20485;50.992;5.550;2023-06-22T13:28:30;45.85;;;28.02;;
33926;SDS011;20485;50.992;5.550;2023-06-22T13:30:56;34.35;;;26.08;;
33926;SDS011;20485;50.992;5.550;2023-06-22T13:33:22;34.67;;;25.95;;
33926;SDS011;20485;50.992;5.550;2023-06-22T13:35:47;33.45;;;24.80;;
33926;SDS011;20485;50.992;5.550;2023-06-22T13:38:13;33.67;;;25.40;;
33926;SDS011;20485;50.992;5.550;2023-06-22T13:40:38;32.70;;;24.92;;
33926;SDS011;20485;50.992;5.550;2023-06-22T13:43:04;32.15;;;25.13;;
33926;SDS011;20485;50.992;5.550;2023-06-22T13:45:30;36.90;;;24.33;;
33926;SDS011;20485;50.992;5.550;2023-06-22T13:47:56;36.08;;;25.60;;
33926;SDS011;20485;50.992;5.550;2023-06-22T13:50:21;31.90;;;24.52;;
33926;SDS011;20485;50.992;5.550;2023-06-22T13:52:47;34.03;;;25.40;;
33926;SDS011;20485;50.992;5.550;2023-06-22T13:55:13;35.08;;;25.88;;
33926;SDS011;20485;50.992;5.550;2023-06-22T13:57:39;39.45;;;28.60;;
33926;SDS011;20485;50.992;5.550;2023-06-22T14:00:06;42.15;;;28.13;;
33926;SDS011;20485;50.992;5.550;2023-06-22T14:02:33;48.05;;;31.23;;
33926;SDS011;20485;50.992;5.550;2023-06-22T14:04:59;42.10;;;30.83;;
33926;SDS011;20485;50.992;5.550;2023-06-22T14:07:24;41.72;;;32.05;;
33926;SDS011;20485;50.992;5.550;2023-06-22T14:09:50;49.13;;;33.65;;
33926;SDS011;20485;50.992;5.550;2023-06-22T14:12:16;55.28;;;34.25;;
33926;SDS011;20485;50.992;5.550;2023-06-22T14:14:45;49.75;;;33.28;;
33926;SDS011;20485;50.992;5.550;2023-06-22T14:17:11;46.30;;;34.10;;
33926;SDS011;20485;50.992;5.550;2023-06-22T14:19:36;54.45;;;35.15;;
33926;SDS011;20485;50.992;5.550;2023-06-22T14:22:02;51.65;;;36.50;;
33926;SDS011;20485;50.992;5.550;2023-06-22T14:24:28;54.28;;;36.92;;
33926;SDS011;20485;50.992;5.550;2023-06-22T14:26:54;60.00;;;39.83;;